sensor_id;sensor_type;location;lat;lon;timestamp;P1;durP1;ratioP1;P2;durP2;ratioP2
25936;SDS011;13733;51.178;4.450;2023-03-01T00:01:27;8.85;;;6.82;;
25936;SDS011;13733;51.178;4.450;2023-03-01T00:03:55;10.30;;;7.00;;
25936;SDS011;13733;51.178;4.450;2023-03-01T00:06:21;9.35;;;6.82;;
25936;SDS011;13733;51.178;4.450;2023-03-01T00:08:47;12.45;;;7.82;;
25936;SDS011;13733;51.178;4.450;2023-03-01T00:11:14;12.98;;;7.43;;
25936;SDS011;13733;51.178;4.450;2023-03-01T00:13:46;11.57;;;7.53;;
25936;SDS011;13733;51.178;4.450;2023-03-01T00:16:14;10.20;;;7.05;;
25936;SDS011;13733;51.178;4.450;2023-03-01T00:18:42;11.27;;;6.65;;
25936;SDS011;13733;51.178;4.450;2023-03-01T00:21:09;10.55;;;7.05;;
25936;SDS011;13733;51.178;4.450;2023-03-01T00:23:37;12.27;;;7.50;;
25936;SDS011;13733;51.178;4.450;2023-03-01T00:26:05;12.63;;;7.20;;
25936;SDS011;13733;51.178;4.450;2023-03-01T00:28:38;8.75;;;6.68;;
25936;SDS011;13733;51.178;4.450;2023-03-01T00:31:05;11.32;;;7.35;;
25936;SDS011;13733;51.178;4.450;2023-03-01T00:33:32;11.35;;;7.13;;
25936;SDS011;13733;51.178;4.450;2023-03-01T00:35:58;10.60;;;7.25;;
25936;SDS011;13733;51.178;4.450;2023-03-01T00:38:25;12.82;;;6.85;;
25936;SDS011;13733;51.178;4.450;2023-03-01T00:40:52;10.60;;;7.10;;
25936;SDS011;13733;51.178;4.450;2023-03-01T00:43:19;11.48;;;7.40;;
25936;SDS011;13733;51.178;4.450;2023-03-01T00:45:45;12.00;;;7.07;;
25936;SDS011;13733;51.178;4.450;2023-03-01T00:48:11;12.00;;;7.35;;
25936;SDS011;13733;51.178;4.450;2023-03-01T00:50:37;10.85;;;7.57;;
25936;SDS011;13733;51.178;4.450;2023-03-01T00:53:02;11.70;;;7.55;;
25936;SDS011;13733;51.178;4.450;2023-03-01T00:55:30;12.05;;;7.03;;
25936;SDS011;13733;51.178;4.450;2023-03-01T00:57:56;12.27;;;7.70;;
25936;SDS011;13733;51.178;4.450;2023-03-01T01:00:22;12.70;;;7.30;;
25936;SDS011;13733;51.178;4.450;2023-03-01T01:02:47;11.10;;;7.78;;
25936;SDS011;13733;51.178;4.450;2023-03-01T01:05:14;13.07;;;7.45;;
25936;SDS011;13733;51.178;4.450;2023-03-01T01:07:46;12.25;;;7.53;;
25936;SDS011;13733;51.178;4.450;2023-03-01T01:10:13;10.68;;;7.43;;
25936;SDS011;13733;51.178;4.450;2023-03-01T01:12:43;11.80;;;7.30;;
25936;SDS011;13733;51.178;4.450;2023-03-01T01:15:10;10.52;;;7.57;;
25936;SDS011;13733;51.178;4.450;2023-03-01T01:17:38;10.25;;;7.60;;
25936;SDS011;13733;51.178;4.450;2023-03-01T01:20:05;10.65;;;7.90;;
25936;SDS011;13733;51.178;4.450;2023-03-01T01:22:32;13.07;;;7.75;;
25936;SDS011;13733;51.178;4.450;2023-03-01T01:24:58;12.15;;;7.95;;
25936;SDS011;13733;51.178;4.450;2023-03-01T01:27:23;11.85;;;7.88;;
25936;SDS011;13733;51.178;4.450;2023-03-01T01:29:49;11.10;;;7.57;;
25936;SDS011;13733;51.178;4.450;2023-03-01T01:32:17;11.85;;;7.80;;
25936;SDS011;13733;51.178;4.450;2023-03-01T01:34:43;11.30;;;7.63;;
25936;SDS011;13733;51.178;4.450;2023-03-01T01:37:08;11.30;;;6.90;;
25936;SDS011;13733;51.178;4.450;2023-03-01T01:39:34;9.85;;;7.18;;
25936;SDS011;13733;51.178;4.450;2023-03-01T01:42:01;12.70;;;7.63;;
25936;SDS011;13733;51.178;4.450;2023-03-01T01:44:28;10.70;;;7.63;;
25936;SDS011;13733;51.178;4.450;2023-03-01T01:50:04;10.35;;;7.60;;
25936;SDS011;13733;51.178;4.450;2023-03-01T01:52:27;10.63;;;7.72;;
25936;SDS011;13733;51.178;4.450;2023-03-01T01:55:09;11.30;;;7.55;;
25936;SDS011;13733;51.178;4.450;2023-03-01T01:57:45;11.75;;;7.28;;
25936;SDS011;13733;51.178;4.450;2023-03-01T02:00:16;9.82;;;7.15;;
25936;SDS011;13733;51.178;4.450;2023-03-01T02:02:47;9.70;;;7.32;;
25936;SDS011;13733;51.178;4.450;2023-03-01T02:08:02;10.10;;;7.13;;
25936;SDS011;13733;51.178;4.450;2023-03-01T02:10:28;10.77;;;7.50;;
25936;SDS011;13733;51.178;4.450;2023-03-01T02:12:58;10.23;;;7.65;;
25936;SDS011;13733;51.178;4.450;2023-03-01T02:15:26;11.18;;;7.32;;
25936;SDS011;13733;51.178;4.450;2023-03-01T02:17:57;12.10;;;7.85;;
25936;SDS011;13733;51.178;4.450;2023-03-01T02:20:29;12.65;;;8.13;;
25936;SDS011;13733;51.178;4.450;2023-03-01T02:22:58;11.40;;;7.28;;
25936;SDS011;13733;51.178;4.450;2023-03-01T02:30:47;11.43;;;7.10;;
25936;SDS011;13733;51.178;4.450;2023-03-01T02:33:33;11.18;;;7.60;;
25936;SDS011;13733;51.178;4.450;2023-03-01T02:36:03;11.73;;;7.60;;
25936;SDS011;13733;51.178;4.450;2023-03-01T02:38:50;13.05;;;7.40;;
25936;SDS011;13733;51.178;4.450;2023-03-01T02:41:18;11.10;;;7.15;;
25936;SDS011;13733;51.178;4.450;2023-03-01T02:43:46;11.55;;;7.90;;
25936;SDS011;13733;51.178;4.450;2023-03-01T02:46:22;11.82;;;7.35;;
25936;SDS011;13733;51.178;4.450;2023-03-01T02:48:50;11.00;;;8.05;;
25936;SDS011;13733;51.178;4.450;2023-03-01T02:56:43;11.18;;;6.90;;
25936;SDS011;13733;51.178;4.450;2023-03-01T02:59:10;10.50;;;7.80;;
25936;SDS011;13733;51.178;4.450;2023-03-01T03:01:38;9.00;;;7.10;;
25936;SDS011;13733;51.178;4.450;2023-03-01T03:04:08;11.57;;;7.30;;
25936;SDS011;13733;51.178;4.450;2023-03-01T03:06:45;9.55;;;7.13;;
25936;SDS011;13733;51.178;4.450;2023-03-01T03:09:12;12.15;;;7.50;;
25936;SDS011;13733;51.178;4.450;2023-03-01T03:11:39;9.63;;;6.75;;
25936;SDS011;13733;51.178;4.450;2023-03-01T03:14:07;11.05;;;7.80;;
25936;SDS011;13733;51.178;4.450;2023-03-01T03:16:41;14.10;;;7.53;;
25936;SDS011;13733;51.178;4.450;2023-03-01T03:19:16;10.68;;;7.60;;
25936;SDS011;13733;51.178;4.450;2023-03-01T03:21:43;11.77;;;7.00;;
25936;SDS011;13733;51.178;4.450;2023-03-01T03:24:10;9.98;;;7.10;;
25936;SDS011;13733;51.178;4.450;2023-03-01T03:26:36;11.45;;;7.35;;
25936;SDS011;13733;51.178;4.450;2023-03-01T03:29:02;12.73;;;7.88;;
25936;SDS011;13733;51.178;4.450;2023-03-01T03:31:28;9.75;;;7.28;;
25936;SDS011;13733;51.178;4.450;2023-03-01T03:33:54;10.13;;;7.45;;
25936;SDS011;13733;51.178;4.450;2023-03-01T03:36:22;10.00;;;7.05;;
25936;SDS011;13733;51.178;4.450;2023-03-01T03:38:49;12.05;;;7.25;;
25936;SDS011;13733;51.178;4.450;2023-03-01T03:41:15;13.23;;;7.40;;
25936;SDS011;13733;51.178;4.450;2023-03-01T03:43:41;12.95;;;7.85;;
25936;SDS011;13733;51.178;4.450;2023-03-01T03:46:10;11.95;;;7.90;;
25936;SDS011;13733;51.178;4.450;2023-03-01T03:48:37;12.50;;;7.55;;
25936;SDS011;13733;51.178;4.450;2023-03-01T03:51:09;12.32;;;7.22;;
25936;SDS011;13733;51.178;4.450;2023-03-01T03:53:36;12.73;;;7.47;;
25936;SDS011;13733;51.178;4.450;2023-03-01T03:56:03;10.90;;;7.15;;
25936;SDS011;13733;51.178;4.450;2023-03-01T03:58:29;10.55;;;6.78;;
25936;SDS011;13733;51.178;4.450;2023-03-01T04:00:57;10.18;;;7.97;;
25936;SDS011;13733;51.178;4.450;2023-03-01T04:03:23;10.65;;;7.78;;
25936;SDS011;13733;51.178;4.450;2023-03-01T04:05:50;11.68;;;7.53;;
25936;SDS011;13733;51.178;4.450;2023-03-01T04:08:20;10.02;;;7.63;;
25936;SDS011;13733;51.178;4.450;2023-03-01T04:13:15;13.30;;;7.55;;
25936;SDS011;13733;51.178;4.450;2023-03-01T04:15:44;13.40;;;8.10;;
25936;SDS011;13733;51.178;4.450;2023-03-01T04:18:12;13.40;;;8.38;;
25936;SDS011;13733;51.178;4.450;2023-03-01T04:20:39;11.30;;;7.82;;
25936;SDS011;13733;51.178;4.450;2023-03-01T04:23:07;10.85;;;7.57;;
25936;SDS011;13733;51.178;4.450;2023-03-01T04:28:26;14.50;;;7.45;;
25936;SDS011;13733;51.178;4.450;2023-03-01T04:30:54;10.65;;;7.70;;
25936;SDS011;13733;51.178;4.450;2023-03-01T04:33:21;14.90;;;7.45;;
25936;SDS011;13733;51.178;4.450;2023-03-01T04:35:49;11.98;;;7.80;;
25936;SDS011;13733;51.178;4.450;2023-03-01T04:38:15;11.57;;;7.40;;
25936;SDS011;13733;51.178;4.450;2023-03-01T04:40:41;13.43;;;7.75;;
25936;SDS011;13733;51.178;4.450;2023-03-01T04:43:09;11.43;;;7.97;;
25936;SDS011;13733;51.178;4.450;2023-03-01T04:45:35;11.07;;;7.97;;
25936;SDS011;13733;51.178;4.450;2023-03-01T04:48:02;10.70;;;7.75;;
25936;SDS011;13733;51.178;4.450;2023-03-01T04:50:29;13.90;;;7.43;;
25936;SDS011;13733;51.178;4.450;2023-03-01T04:52:54;10.90;;;7.63;;
25936;SDS011;13733;51.178;4.450;2023-03-01T04:55:25;15.35;;;8.32;;
25936;SDS011;13733;51.178;4.450;2023-03-01T04:57:52;14.00;;;7.72;;
25936;SDS011;13733;51.178;4.450;2023-03-01T05:00:18;10.13;;;7.80;;
25936;SDS011;13733;51.178;4.450;2023-03-01T05:02:48;14.65;;;7.93;;
25936;SDS011;13733;51.178;4.450;2023-03-01T05:07:59;14.40;;;8.70;;
25936;SDS011;13733;51.178;4.450;2023-03-01T05:10:28;12.70;;;7.82;;
25936;SDS011;13733;51.178;4.450;2023-03-01T05:12:55;12.35;;;8.27;;
25936;SDS011;13733;51.178;4.450;2023-03-01T05:15:22;12.65;;;7.75;;
25936;SDS011;13733;51.178;4.450;2023-03-01T05:17:52;14.40;;;8.13;;
25936;SDS011;13733;51.178;4.450;2023-03-01T05:20:21;10.77;;;8.00;;
25936;SDS011;13733;51.178;4.450;2023-03-01T05:22:50;15.43;;;8.45;;
25936;SDS011;13733;51.178;4.450;2023-03-01T05:25:17;13.05;;;8.43;;
25936;SDS011;13733;51.178;4.450;2023-03-01T05:27:43;12.57;;;8.60;;
25936;SDS011;13733;51.178;4.450;2023-03-01T05:30:10;11.90;;;7.93;;
25936;SDS011;13733;51.178;4.450;2023-03-01T05:32:40;12.38;;;8.32;;
25936;SDS011;13733;51.178;4.450;2023-03-01T05:35:08;14.57;;;7.93;;
25936;SDS011;13733;51.178;4.450;2023-03-01T05:37:42;15.13;;;8.35;;
25936;SDS011;13733;51.178;4.450;2023-03-01T05:40:13;15.00;;;8.30;;
25936;SDS011;13733;51.178;4.450;2023-03-01T05:42:43;15.52;;;8.55;;
25936;SDS011;13733;51.178;4.450;2023-03-01T05:45:11;13.20;;;8.32;;
25936;SDS011;13733;51.178;4.450;2023-03-01T05:47:39;13.25;;;8.68;;
25936;SDS011;13733;51.178;4.450;2023-03-01T05:50:09;12.07;;;8.60;;
25936;SDS011;13733;51.178;4.450;2023-03-01T05:52:38;13.30;;;8.02;;
25936;SDS011;13733;51.178;4.450;2023-03-01T05:55:04;14.95;;;7.82;;
25936;SDS011;13733;51.178;4.450;2023-03-01T05:57:30;12.50;;;7.93;;
25936;SDS011;13733;51.178;4.450;2023-03-01T05:59:57;12.68;;;7.93;;
25936;SDS011;13733;51.178;4.450;2023-03-01T06:02:22;12.60;;;8.20;;
25936;SDS011;13733;51.178;4.450;2023-03-01T06:04:48;16.50;;;8.27;;
25936;SDS011;13733;51.178;4.450;2023-03-01T06:07:14;12.45;;;8.75;;
25936;SDS011;13733;51.178;4.450;2023-03-01T06:09:39;14.63;;;8.18;;
25936;SDS011;13733;51.178;4.450;2023-03-01T06:12:07;13.60;;;8.50;;
25936;SDS011;13733;51.178;4.450;2023-03-01T06:14:33;15.63;;;8.73;;
25936;SDS011;13733;51.178;4.450;2023-03-01T06:16:58;13.90;;;8.70;;
25936;SDS011;13733;51.178;4.450;2023-03-01T06:19:24;20.33;;;8.15;;
25936;SDS011;13733;51.178;4.450;2023-03-01T06:21:50;13.35;;;8.05;;
25936;SDS011;13733;51.178;4.450;2023-03-01T06:24:15;15.38;;;9.25;;
25936;SDS011;13733;51.178;4.450;2023-03-01T06:26:41;15.73;;;8.80;;
25936;SDS011;13733;51.178;4.450;2023-03-01T06:29:07;18.20;;;8.75;;
25936;SDS011;13733;51.178;4.450;2023-03-01T06:31:33;15.95;;;8.68;;
25936;SDS011;13733;51.178;4.450;2023-03-01T06:33:59;16.20;;;8.80;;
25936;SDS011;13733;51.178;4.450;2023-03-01T06:36:25;15.68;;;9.02;;
25936;SDS011;13733;51.178;4.450;2023-03-01T06:38:51;11.73;;;8.55;;
25936;SDS011;13733;51.178;4.450;2023-03-01T06:41:16;14.75;;;8.13;;
25936;SDS011;13733;51.178;4.450;2023-03-01T06:43:42;15.73;;;8.55;;
25936;SDS011;13733;51.178;4.450;2023-03-01T06:46:08;19.75;;;8.40;;
25936;SDS011;13733;51.178;4.450;2023-03-01T06:48:34;20.83;;;8.95;;
25936;SDS011;13733;51.178;4.450;2023-03-01T06:51:00;15.38;;;8.18;;
25936;SDS011;13733;51.178;4.450;2023-03-01T06:53:26;14.95;;;8.60;;
25936;SDS011;13733;51.178;4.450;2023-03-01T06:55:56;15.15;;;8.63;;
25936;SDS011;13733;51.178;4.450;2023-03-01T06:58:26;17.00;;;9.57;;
25936;SDS011;13733;51.178;4.450;2023-03-01T07:00:51;16.25;;;9.32;;
25936;SDS011;13733;51.178;4.450;2023-03-01T07:03:17;18.00;;;8.60;;
25936;SDS011;13733;51.178;4.450;2023-03-01T07:05:43;18.05;;;9.20;;
25936;SDS011;13733;51.178;4.450;2023-03-01T07:08:09;17.35;;;9.35;;
25936;SDS011;13733;51.178;4.450;2023-03-01T07:10:35;16.65;;;9.10;;
25936;SDS011;13733;51.178;4.450;2023-03-01T07:13:01;18.27;;;8.90;;
25936;SDS011;13733;51.178;4.450;2023-03-01T07:15:28;15.07;;;8.80;;
25936;SDS011;13733;51.178;4.450;2023-03-01T07:17:54;18.40;;;8.93;;
25936;SDS011;13733;51.178;4.450;2023-03-01T07:20:21;14.25;;;8.73;;
25936;SDS011;13733;51.178;4.450;2023-03-01T07:22:49;14.90;;;8.57;;
25936;SDS011;13733;51.178;4.450;2023-03-01T07:25:19;15.07;;;8.83;;
25936;SDS011;13733;51.178;4.450;2023-03-01T07:27:48;13.75;;;8.40;;
25936;SDS011;13733;51.178;4.450;2023-03-01T07:30:15;14.27;;;8.45;;
25936;SDS011;13733;51.178;4.450;2023-03-01T07:32:41;16.48;;;8.48;;
25936;SDS011;13733;51.178;4.450;2023-03-01T07:35:07;11.52;;;8.15;;
25936;SDS011;13733;51.178;4.450;2023-03-01T07:37:33;19.77;;;8.93;;
25936;SDS011;13733;51.178;4.450;2023-03-01T07:39:58;14.75;;;8.68;;
25936;SDS011;13733;51.178;4.450;2023-03-01T07:42:24;16.50;;;8.30;;
25936;SDS011;13733;51.178;4.450;2023-03-01T07:44:50;12.55;;;8.23;;
25936;SDS011;13733;51.178;4.450;2023-03-01T07:47:15;15.52;;;8.30;;
25936;SDS011;13733;51.178;4.450;2023-03-01T07:49:41;16.77;;;8.05;;
25936;SDS011;13733;51.178;4.450;2023-03-01T07:52:09;13.55;;;8.13;;
25936;SDS011;13733;51.178;4.450;2023-03-01T07:54:37;14.40;;;8.52;;
25936;SDS011;13733;51.178;4.450;2023-03-01T07:57:03;14.38;;;8.80;;
25936;SDS011;13733;51.178;4.450;2023-03-01T07:59:31;10.98;;;8.38;;
25936;SDS011;13733;51.178;4.450;2023-03-01T08:01:57;12.57;;;8.45;;
25936;SDS011;13733;51.178;4.450;2023-03-01T08:04:23;16.60;;;8.50;;
25936;SDS011;13733;51.178;4.450;2023-03-01T08:06:52;14.13;;;8.40;;
25936;SDS011;13733;51.178;4.450;2023-03-01T08:09:19;10.55;;;8.00;;
25936;SDS011;13733;51.178;4.450;2023-03-01T08:11:45;13.50;;;8.57;;
25936;SDS011;13733;51.178;4.450;2023-03-01T08:14:11;12.93;;;8.45;;
25936;SDS011;13733;51.178;4.450;2023-03-01T08:16:36;15.05;;;8.38;;
25936;SDS011;13733;51.178;4.450;2023-03-01T08:19:06;14.68;;;8.57;;
25936;SDS011;13733;51.178;4.450;2023-03-01T08:21:33;10.57;;;7.65;;
25936;SDS011;13733;51.178;4.450;2023-03-01T08:24:03;13.70;;;8.38;;
25936;SDS011;13733;51.178;4.450;2023-03-01T08:26:31;12.98;;;8.52;;
25936;SDS011;13733;51.178;4.450;2023-03-01T08:28:57;12.10;;;8.18;;
25936;SDS011;13733;51.178;4.450;2023-03-01T08:33:57;14.45;;;9.05;;
25936;SDS011;13733;51.178;4.450;2023-03-01T08:36:26;17.65;;;9.65;;
25936;SDS011;13733;51.178;4.450;2023-03-01T08:38:57;14.07;;;8.40;;
25936;SDS011;13733;51.178;4.450;2023-03-01T08:41:23;11.80;;;8.68;;
25936;SDS011;13733;51.178;4.450;2023-03-01T08:43:50;13.68;;;8.93;;
25936;SDS011;13733;51.178;4.450;2023-03-01T08:46:15;12.48;;;8.30;;
25936;SDS011;13733;51.178;4.450;2023-03-01T08:48:41;12.95;;;8.80;;
25936;SDS011;13733;51.178;4.450;2023-03-01T08:53:33;12.27;;;9.00;;
25936;SDS011;13733;51.178;4.450;2023-03-01T08:56:00;14.05;;;9.00;;
25936;SDS011;13733;51.178;4.450;2023-03-01T08:58:27;14.73;;;8.40;;
25936;SDS011;13733;51.178;4.450;2023-03-01T09:00:54;14.10;;;8.63;;
25936;SDS011;13733;51.178;4.450;2023-03-01T09:03:21;13.73;;;8.40;;
25936;SDS011;13733;51.178;4.450;2023-03-01T09:05:47;13.13;;;8.77;;
25936;SDS011;13733;51.178;4.450;2023-03-01T09:08:15;11.38;;;8.32;;
25936;SDS011;13733;51.178;4.450;2023-03-01T09:10:44;16.25;;;8.68;;
25936;SDS011;13733;51.178;4.450;2023-03-01T09:13:10;15.80;;;9.32;;
25936;SDS011;13733;51.178;4.450;2023-03-01T09:15:37;10.52;;;7.78;;
25936;SDS011;13733;51.178;4.450;2023-03-01T09:18:04;12.95;;;8.52;;
25936;SDS011;13733;51.178;4.450;2023-03-01T09:20:30;14.02;;;7.88;;
25936;SDS011;13733;51.178;4.450;2023-03-01T09:22:57;11.68;;;8.57;;
25936;SDS011;13733;51.178;4.450;2023-03-01T09:25:23;13.88;;;8.00;;
25936;SDS011;13733;51.178;4.450;2023-03-01T09:27:52;11.85;;;8.45;;
25936;SDS011;13733;51.178;4.450;2023-03-01T09:30:20;15.85;;;7.72;;
25936;SDS011;13733;51.178;4.450;2023-03-01T09:32:46;12.63;;;8.20;;
25936;SDS011;13733;51.178;4.450;2023-03-01T09:35:12;12.10;;;7.78;;
25936;SDS011;13733;51.178;4.450;2023-03-01T09:37:38;10.82;;;8.05;;
25936;SDS011;13733;51.178;4.450;2023-03-01T09:40:17;12.57;;;8.48;;
25936;SDS011;13733;51.178;4.450;2023-03-01T09:42:46;13.35;;;7.93;;
25936;SDS011;13733;51.178;4.450;2023-03-01T09:45:23;17.02;;;8.43;;
25936;SDS011;13733;51.178;4.450;2023-03-01T09:47:54;10.95;;;7.60;;
25936;SDS011;13733;51.178;4.450;2023-03-01T09:50:21;12.85;;;7.90;;
25936;SDS011;13733;51.178;4.450;2023-03-01T09:53:00;12.68;;;8.18;;
25936;SDS011;13733;51.178;4.450;2023-03-01T09:58:25;12.18;;;8.20;;
25936;SDS011;13733;51.178;4.450;2023-03-01T10:04:03;15.38;;;8.07;;
25936;SDS011;13733;51.178;4.450;2023-03-01T10:06:55;12.30;;;8.18;;
25936;SDS011;13733;51.178;4.450;2023-03-01T10:09:33;13.35;;;8.15;;
25936;SDS011;13733;51.178;4.450;2023-03-01T10:12:02;12.15;;;7.65;;
25936;SDS011;13733;51.178;4.450;2023-03-01T10:17:01;15.60;;;7.90;;
25936;SDS011;13733;51.178;4.450;2023-03-01T10:19:39;12.27;;;8.43;;
25936;SDS011;13733;51.178;4.450;2023-03-01T10:22:19;11.75;;;7.65;;
25936;SDS011;13733;51.178;4.450;2023-03-01T10:24:46;10.65;;;7.97;;
25936;SDS011;13733;51.178;4.450;2023-03-01T10:27:23;13.35;;;8.43;;
25936;SDS011;13733;51.178;4.450;2023-03-01T10:32:49;11.07;;;7.38;;
25936;SDS011;13733;51.178;4.450;2023-03-01T10:35:20;12.27;;;8.07;;
25936;SDS011;13733;51.178;4.450;2023-03-01T10:38:07;10.13;;;7.70;;
25936;SDS011;13733;51.178;4.450;2023-03-01T10:40:35;11.10;;;7.40;;
25936;SDS011;13733;51.178;4.450;2023-03-01T10:43:02;9.93;;;6.30;;
25936;SDS011;13733;51.178;4.450;2023-03-01T10:45:31;13.05;;;7.45;;
25936;SDS011;13733;51.178;4.450;2023-03-01T10:56:01;11.40;;;7.63;;
25936;SDS011;13733;51.178;4.450;2023-03-01T10:58:34;14.75;;;8.00;;
25936;SDS011;13733;51.178;4.450;2023-03-01T11:01:02;9.90;;;7.05;;
25936;SDS011;13733;51.178;4.450;2023-03-01T11:05:58;11.00;;;7.20;;
25936;SDS011;13733;51.178;4.450;2023-03-01T11:08:32;11.27;;;7.90;;
25936;SDS011;13733;51.178;4.450;2023-03-01T11:13:34;9.45;;;7.00;;
25936;SDS011;13733;51.178;4.450;2023-03-01T11:16:05;9.57;;;6.68;;
25936;SDS011;13733;51.178;4.450;2023-03-01T11:18:35;11.40;;;7.10;;
25936;SDS011;13733;51.178;4.450;2023-03-01T11:21:02;11.55;;;7.22;;
25936;SDS011;13733;51.178;4.450;2023-03-01T11:23:30;8.88;;;6.57;;
25936;SDS011;13733;51.178;4.450;2023-03-01T11:26:05;10.40;;;7.00;;
25936;SDS011;13733;51.178;4.450;2023-03-01T11:28:33;10.50;;;6.68;;
25936;SDS011;13733;51.178;4.450;2023-03-01T11:31:08;11.27;;;7.25;;
25936;SDS011;13733;51.178;4.450;2023-03-01T11:39:02;11.90;;;6.90;;
25936;SDS011;13733;51.178;4.450;2023-03-01T11:41:50;12.13;;;7.20;;
25936;SDS011;13733;51.178;4.450;2023-03-01T11:44:26;8.65;;;6.20;;
25936;SDS011;13733;51.178;4.450;2023-03-01T12:03:30;10.88;;;6.50;;
25936;SDS011;13733;51.178;4.450;2023-03-01T12:09:24;7.78;;;6.45;;
25936;SDS011;13733;51.178;4.450;2023-03-01T12:14:51;8.50;;;6.60;;
25936;SDS011;13733;51.178;4.450;2023-03-01T12:18:11;9.70;;;6.50;;
25936;SDS011;13733;51.178;4.450;2023-03-01T12:26:30;10.25;;;6.35;;
25936;SDS011;13733;51.178;4.450;2023-03-01T12:48:20;16.83;;;7.45;;
25936;SDS011;13733;51.178;4.450;2023-03-01T12:51:01;9.55;;;6.53;;
25936;SDS011;13733;51.178;4.450;2023-03-01T12:53:31;9.48;;;6.85;;
25936;SDS011;13733;51.178;4.450;2023-03-01T12:56:23;8.88;;;5.65;;
25936;SDS011;13733;51.178;4.450;2023-03-01T13:04:33;6.95;;;5.55;;
25936;SDS011;13733;51.178;4.450;2023-03-01T13:10:17;10.85;;;6.03;;
25936;SDS011;13733;51.178;4.450;2023-03-01T13:15:25;8.52;;;5.72;;
25936;SDS011;13733;51.178;4.450;2023-03-01T13:20:20;9.68;;;5.60;;
25936;SDS011;13733;51.178;4.450;2023-03-01T13:23:01;7.80;;;5.28;;
25936;SDS011;13733;51.178;4.450;2023-03-01T13:28:39;7.93;;;5.97;;
25936;SDS011;13733;51.178;4.450;2023-03-01T13:33:41;9.98;;;5.47;;
25936;SDS011;13733;51.178;4.450;2023-03-01T13:36:39;9.13;;;6.32;;
25936;SDS011;13733;51.178;4.450;2023-03-01T13:38:59;8.63;;;5.63;;
25936;SDS011;13733;51.178;4.450;2023-03-01T13:44:49;10.13;;;5.88;;
25936;SDS011;13733;51.178;4.450;2023-03-01T13:46:57;8.57;;;5.72;;
25936;SDS011;13733;51.178;4.450;2023-03-01T13:49:31;7.82;;;5.85;;
25936;SDS011;13733;51.178;4.450;2023-03-01T13:52:25;7.30;;;5.70;;
25936;SDS011;13733;51.178;4.450;2023-03-01T13:55:07;8.32;;;5.85;;
25936;SDS011;13733;51.178;4.450;2023-03-01T13:57:39;9.10;;;5.78;;
25936;SDS011;13733;51.178;4.450;2023-03-01T14:00:32;9.57;;;6.07;;
25936;SDS011;13733;51.178;4.450;2023-03-01T14:03:01;9.60;;;6.10;;
25936;SDS011;13733;51.178;4.450;2023-03-01T14:05:39;10.32;;;5.55;;
25936;SDS011;13733;51.178;4.450;2023-03-01T14:08:22;10.38;;;5.50;;
25936;SDS011;13733;51.178;4.450;2023-03-01T14:19:16;8.63;;;6.47;;
25936;SDS011;13733;51.178;4.450;2023-03-01T14:24:57;8.70;;;5.95;;
25936;SDS011;13733;51.178;4.450;2023-03-01T14:27:32;7.22;;;5.30;;
25936;SDS011;13733;51.178;4.450;2023-03-01T14:30:02;9.20;;;5.68;;
25936;SDS011;13733;51.178;4.450;2023-03-01T14:32:41;9.90;;;5.35;;
25936;SDS011;13733;51.178;4.450;2023-03-01T14:35:23;8.52;;;5.43;;
25936;SDS011;13733;51.178;4.450;2023-03-01T14:37:51;10.10;;;5.47;;
25936;SDS011;13733;51.178;4.450;2023-03-01T14:40:22;9.10;;;6.25;;
25936;SDS011;13733;51.178;4.450;2023-03-01T14:42:56;11.55;;;6.28;;
25936;SDS011;13733;51.178;4.450;2023-03-01T14:45:25;7.05;;;5.53;;
25936;SDS011;13733;51.178;4.450;2023-03-01T14:47:53;9.10;;;5.90;;
25936;SDS011;13733;51.178;4.450;2023-03-01T14:50:23;8.02;;;5.80;;
25936;SDS011;13733;51.178;4.450;2023-03-01T14:53:04;6.88;;;5.57;;
25936;SDS011;13733;51.178;4.450;2023-03-01T14:55:34;9.57;;;5.88;;
25936;SDS011;13733;51.178;4.450;2023-03-01T14:58:04;7.75;;;5.72;;
25936;SDS011;13733;51.178;4.450;2023-03-01T15:00:34;11.00;;;6.32;;
25936;SDS011;13733;51.178;4.450;2023-03-01T15:05:52;7.13;;;6.15;;
25936;SDS011;13733;51.178;4.450;2023-03-01T15:08:19;7.47;;;6.55;;
25936;SDS011;13733;51.178;4.450;2023-03-01T15:11:01;7.72;;;6.28;;
25936;SDS011;13733;51.178;4.450;2023-03-01T15:13:34;7.72;;;6.18;;
25936;SDS011;13733;51.178;4.450;2023-03-01T15:18:36;10.63;;;6.45;;
25936;SDS011;13733;51.178;4.450;2023-03-01T15:21:13;8.43;;;5.60;;
25936;SDS011;13733;51.178;4.450;2023-03-01T15:23:47;12.02;;;6.43;;
25936;SDS011;13733;51.178;4.450;2023-03-01T15:26:25;11.27;;;6.60;;
25936;SDS011;13733;51.178;4.450;2023-03-01T15:28:55;10.18;;;6.28;;
25936;SDS011;13733;51.178;4.450;2023-03-01T15:31:27;14.23;;;6.68;;
25936;SDS011;13733;51.178;4.450;2023-03-01T15:34:24;8.35;;;6.18;;
25936;SDS011;13733;51.178;4.450;2023-03-01T15:36:58;7.53;;;6.35;;
25936;SDS011;13733;51.178;4.450;2023-03-01T15:42:47;11.32;;;5.80;;
25936;SDS011;13733;51.178;4.450;2023-03-01T15:45:09;9.43;;;6.22;;
25936;SDS011;13733;51.178;4.450;2023-03-01T15:47:41;6.68;;;5.97;;
25936;SDS011;13733;51.178;4.450;2023-03-01T15:50:27;7.75;;;6.25;;
25936;SDS011;13733;51.178;4.450;2023-03-01T15:52:54;10.77;;;6.25;;
25936;SDS011;13733;51.178;4.450;2023-03-01T15:55:24;7.28;;;6.32;;
25936;SDS011;13733;51.178;4.450;2023-03-01T15:58:00;8.75;;;6.18;;
25936;SDS011;13733;51.178;4.450;2023-03-01T16:00:34;9.20;;;6.03;;
25936;SDS011;13733;51.178;4.450;2023-03-01T16:03:00;8.13;;;6.53;;
25936;SDS011;13733;51.178;4.450;2023-03-01T16:05:27;7.22;;;5.53;;
25936;SDS011;13733;51.178;4.450;2023-03-01T16:07:55;9.77;;;6.85;;
25936;SDS011;13733;51.178;4.450;2023-03-01T16:10:21;6.90;;;5.75;;
25936;SDS011;13733;51.178;4.450;2023-03-01T16:12:48;7.82;;;6.60;;
25936;SDS011;13733;51.178;4.450;2023-03-01T16:15:26;8.52;;;5.80;;
25936;SDS011;13733;51.178;4.450;2023-03-01T16:17:56;9.75;;;6.47;;
25936;SDS011;13733;51.178;4.450;2023-03-01T16:20:25;8.73;;;5.90;;
25936;SDS011;13733;51.178;4.450;2023-03-01T16:22:52;11.25;;;6.57;;
25936;SDS011;13733;51.178;4.450;2023-03-01T16:25:18;9.07;;;6.63;;
25936;SDS011;13733;51.178;4.450;2023-03-01T16:27:45;7.57;;;6.53;;
25936;SDS011;13733;51.178;4.450;2023-03-01T16:30:14;10.55;;;6.95;;
25936;SDS011;13733;51.178;4.450;2023-03-01T16:32:42;8.43;;;6.53;;
25936;SDS011;13733;51.178;4.450;2023-03-01T16:35:11;9.65;;;7.00;;
25936;SDS011;13733;51.178;4.450;2023-03-01T16:37:38;9.63;;;6.95;;
25936;SDS011;13733;51.178;4.450;2023-03-01T16:40:05;12.55;;;6.88;;
25936;SDS011;13733;51.178;4.450;2023-03-01T16:42:41;10.38;;;7.15;;
25936;SDS011;13733;51.178;4.450;2023-03-01T16:45:07;7.65;;;6.13;;
25936;SDS011;13733;51.178;4.450;2023-03-01T16:47:34;10.82;;;7.00;;
25936;SDS011;13733;51.178;4.450;2023-03-01T16:50:00;10.63;;;7.40;;
25936;SDS011;13733;51.178;4.450;2023-03-01T16:52:26;11.52;;;7.10;;
25936;SDS011;13733;51.178;4.450;2023-03-01T16:54:52;9.90;;;6.93;;
25936;SDS011;13733;51.178;4.450;2023-03-01T16:57:17;11.95;;;7.10;;
25936;SDS011;13733;51.178;4.450;2023-03-01T16:59:44;12.43;;;7.32;;
25936;SDS011;13733;51.178;4.450;2023-03-01T17:02:10;12.85;;;7.28;;
25936;SDS011;13733;51.178;4.450;2023-03-01T17:04:38;10.57;;;8.27;;
25936;SDS011;13733;51.178;4.450;2023-03-01T17:07:04;14.05;;;7.72;;
25936;SDS011;13733;51.178;4.450;2023-03-01T17:09:33;12.88;;;8.20;;
25936;SDS011;13733;51.178;4.450;2023-03-01T17:12:00;13.93;;;8.68;;
25936;SDS011;13733;51.178;4.450;2023-03-01T17:14:25;12.10;;;7.65;;
25936;SDS011;13733;51.178;4.450;2023-03-01T17:16:51;11.95;;;7.40;;
25936;SDS011;13733;51.178;4.450;2023-03-01T17:19:18;11.02;;;8.00;;
25936;SDS011;13733;51.178;4.450;2023-03-01T17:21:44;10.75;;;7.55;;